sensor_id;sensor_type;location;lat;lon;timestamp;P1;durP1;ratioP1;P2;durP2;ratioP2
24305;SDS011;12423;48.768;8.850;2022-08-30T00:02:09;6.90;;;4.78;;
24305;SDS011;12423;48.768;8.850;2022-08-30T00:04:10;9.32;;;4.85;;
24305;SDS011;12423;48.768;8.850;2022-08-30T00:06:12;9.73;;;5.00;;
24305;SDS011;12423;48.768;8.850;2022-08-30T00:08:14;7.47;;;4.57;;
24305;SDS011;12423;48.768;8.850;2022-08-30T00:10:16;7.32;;;4.47;;
24305;SDS011;12423;48.768;8.850;2022-08-30T00:12:17;5.40;;;4.47;;
24305;SDS011;12423;48.768;8.850;2022-08-30T00:14:20;8.50;;;4.65;;
24305;SDS011;12423;48.768;8.850;2022-08-30T00:16:21;8.55;;;4.78;;
24305;SDS011;12423;48.768;8.850;2022-08-30T00:18:23;11.35;;;4.68;;
24305;SDS011;12423;48.768;8.850;2022-08-30T00:20:26;10.15;;;4.80;;
24305;SDS011;12423;48.768;8.850;2022-08-30T00:22:28;8.50;;;5.00;;
24305;SDS011;12423;48.768;8.850;2022-08-30T00:24:29;9.82;;;4.32;;
24305;SDS011;12423;48.768;8.850;2022-08-30T00:26:30;8.18;;;4.72;;
24305;SDS011;12423;48.768;8.850;2022-08-30T00:28:31;6.63;;;4.45;;
24305;SDS011;12423;48.768;8.850;2022-08-30T00:30:33;9.75;;;4.22;;
24305;SDS011;12423;48.768;8.850;2022-08-30T00:32:35;7.03;;;4.78;;
24305;SDS011;12423;48.768;8.850;2022-08-30T00:34:36;7.85;;;4.30;;
24305;SDS011;12423;48.768;8.850;2022-08-30T00:36:37;7.40;;;4.38;;
24305;SDS011;12423;48.768;8.850;2022-08-30T00:38:37;10.70;;;4.78;;
24305;SDS011;12423;48.768;8.850;2022-08-30T00:40:39;7.30;;;4.68;;
24305;SDS011;12423;48.768;8.850;2022-08-30T00:42:43;9.73;;;5.13;;
24305;SDS011;12423;48.768;8.850;2022-08-30T00:44:45;8.05;;;4.80;;
24305;SDS011;12423;48.768;8.850;2022-08-30T00:46:46;6.38;;;4.10;;
24305;SDS011;12423;48.768;8.850;2022-08-30T00:48:47;7.35;;;4.35;;
24305;SDS011;12423;48.768;8.850;2022-08-30T00:50:52;8.88;;;5.03;;
24305;SDS011;12423;48.768;8.850;2022-08-30T00:52:57;9.35;;;4.65;;
24305;SDS011;12423;48.768;8.850;2022-08-30T00:55:00;9.07;;;4.68;;
24305;SDS011;12423;48.768;8.850;2022-08-30T00:57:03;7.15;;;4.30;;
24305;SDS011;12423;48.768;8.850;2022-08-30T00:59:05;6.97;;;4.70;;
24305;SDS011;12423;48.768;8.850;2022-08-30T01:01:07;8.40;;;4.65;;
24305;SDS011;12423;48.768;8.850;2022-08-30T01:03:09;8.20;;;4.95;;
24305;SDS011;12423;48.768;8.850;2022-08-30T01:05:10;9.00;;;4.93;;
24305;SDS011;12423;48.768;8.850;2022-08-30T01:07:11;7.15;;;5.07;;
24305;SDS011;12423;48.768;8.850;2022-08-30T01:09:12;6.25;;;4.43;;
24305;SDS011;12423;48.768;8.850;2022-08-30T01:11:15;7.90;;;4.80;;
24305;SDS011;12423;48.768;8.850;2022-08-30T01:13:19;8.02;;;4.90;;
24305;SDS011;12423;48.768;8.850;2022-08-30T01:15:23;7.18;;;4.40;;
24305;SDS011;12423;48.768;8.850;2022-08-30T01:17:24;6.80;;;4.63;;
24305;SDS011;12423;48.768;8.850;2022-08-30T01:19:30;6.93;;;4.70;;
24305;SDS011;12423;48.768;8.850;2022-08-30T01:21:40;6.40;;;4.53;;
24305;SDS011;12423;48.768;8.850;2022-08-30T01:23:46;7.63;;;5.25;;
24305;SDS011;12423;48.768;8.850;2022-08-30T01:25:49;8.20;;;4.80;;
24305;SDS011;12423;48.768;8.850;2022-08-30T01:28:00;6.75;;;4.32;;
24305;SDS011;12423;48.768;8.850;2022-08-30T01:30:05;6.72;;;4.75;;
24305;SDS011;12423;48.768;8.850;2022-08-30T01:32:07;8.23;;;5.05;;
24305;SDS011;12423;48.768;8.850;2022-08-30T01:34:14;6.57;;;4.78;;
24305;SDS011;12423;48.768;8.850;2022-08-30T01:36:15;7.38;;;5.15;;
24305;SDS011;12423;48.768;8.850;2022-08-30T01:38:23;6.05;;;4.47;;
24305;SDS011;12423;48.768;8.850;2022-08-30T01:40:26;7.88;;;4.85;;
24305;SDS011;12423;48.768;8.850;2022-08-30T01:42:27;8.20;;;5.00;;
24305;SDS011;12423;48.768;8.850;2022-08-30T01:44:28;8.35;;;5.28;;
24305;SDS011;12423;48.768;8.850;2022-08-30T01:46:31;7.53;;;4.80;;
24305;SDS011;12423;48.768;8.850;2022-08-30T01:48:35;7.38;;;4.88;;
24305;SDS011;12423;48.768;8.850;2022-08-30T01:50:37;6.80;;;5.00;;
24305;SDS011;12423;48.768;8.850;2022-08-30T01:52:39;6.88;;;4.90;;
24305;SDS011;12423;48.768;8.850;2022-08-30T01:54:41;6.97;;;4.90;;
24305;SDS011;12423;48.768;8.850;2022-08-30T01:56:43;8.50;;;5.28;;
24305;SDS011;12423;48.768;8.850;2022-08-30T01:58:44;8.63;;;5.20;;
24305;SDS011;12423;48.768;8.850;2022-08-30T02:00:45;8.73;;;5.57;;
24305;SDS011;12423;48.768;8.850;2022-08-30T02:02:46;8.60;;;6.10;;
24305;SDS011;12423;48.768;8.850;2022-08-30T02:04:48;6.85;;;5.15;;
24305;SDS011;12423;48.768;8.850;2022-08-30T02:06:49;9.57;;;4.95;;
24305;SDS011;12423;48.768;8.850;2022-08-30T02:08:50;7.68;;;5.00;;
24305;SDS011;12423;48.768;8.850;2022-08-30T02:10:51;9.02;;;5.47;;
24305;SDS011;12423;48.768;8.850;2022-08-30T02:12:52;8.25;;;4.80;;
24305;SDS011;12423;48.768;8.850;2022-08-30T02:14:53;8.20;;;5.28;;
24305;SDS011;12423;48.768;8.850;2022-08-30T02:16:54;9.05;;;5.18;;
24305;SDS011;12423;48.768;8.850;2022-08-30T02:18:55;8.20;;;5.55;;
24305;SDS011;12423;48.768;8.850;2022-08-30T02:20:57;7.65;;;5.65;;
24305;SDS011;12423;48.768;8.850;2022-08-30T02:22:57;7.70;;;5.85;;
24305;SDS011;12423;48.768;8.850;2022-08-30T02:24:58;8.77;;;5.05;;
24305;SDS011;12423;48.768;8.850;2022-08-30T02:27:00;6.68;;;5.13;;
24305;SDS011;12423;48.768;8.850;2022-08-30T02:29:02;9.60;;;5.78;;
24305;SDS011;12423;48.768;8.850;2022-08-30T02:31:05;8.75;;;5.13;;
24305;SDS011;12423;48.768;8.850;2022-08-30T02:33:06;7.70;;;5.40;;
24305;SDS011;12423;48.768;8.850;2022-08-30T02:35:07;8.05;;;5.47;;
24305;SDS011;12423;48.768;8.850;2022-08-30T02:37:09;7.22;;;5.32;;
24305;SDS011;12423;48.768;8.850;2022-08-30T02:39:10;7.85;;;5.05;;
24305;SDS011;12423;48.768;8.850;2022-08-30T02:41:12;10.82;;;5.70;;
24305;SDS011;12423;48.768;8.850;2022-08-30T02:43:14;8.23;;;5.97;;
24305;SDS011;12423;48.768;8.850;2022-08-30T02:45:15;7.35;;;5.13;;
24305;SDS011;12423;48.768;8.850;2022-08-30T02:47:16;8.93;;;5.53;;
24305;SDS011;12423;48.768;8.850;2022-08-30T02:49:17;10.00;;;5.85;;
24305;SDS011;12423;48.768;8.850;2022-08-30T02:51:18;8.52;;;5.28;;
24305;SDS011;12423;48.768;8.850;2022-08-30T02:53:19;7.00;;;4.40;;
24305;SDS011;12423;48.768;8.850;2022-08-30T02:55:21;9.60;;;5.03;;
24305;SDS011;12423;48.768;8.850;2022-08-30T02:57:22;7.05;;;5.32;;
24305;SDS011;12423;48.768;8.850;2022-08-30T02:59:23;7.35;;;5.00;;
24305;SDS011;12423;48.768;8.850;2022-08-30T03:01:24;9.00;;;5.85;;
24305;SDS011;12423;48.768;8.850;2022-08-30T03:03:25;7.85;;;5.43;;
24305;SDS011;12423;48.768;8.850;2022-08-30T03:05:26;6.90;;;5.00;;
24305;SDS011;12423;48.768;8.850;2022-08-30T03:07:27;8.52;;;5.70;;
24305;SDS011;12423;48.768;8.850;2022-08-30T03:09:28;9.15;;;6.00;;
24305;SDS011;12423;48.768;8.850;2022-08-30T03:11:29;8.93;;;5.60;;
24305;SDS011;12423;48.768;8.850;2022-08-30T03:13:31;9.80;;;5.40;;
24305;SDS011;12423;48.768;8.850;2022-08-30T03:15:33;8.63;;;5.20;;
24305;SDS011;12423;48.768;8.850;2022-08-30T03:17:35;13.73;;;5.70;;
24305;SDS011;12423;48.768;8.850;2022-08-30T03:19:36;8.15;;;5.80;;
24305;SDS011;12423;48.768;8.850;2022-08-30T03:21:37;9.27;;;5.32;;
24305;SDS011;12423;48.768;8.850;2022-08-30T03:23:38;7.90;;;4.97;;
24305;SDS011;12423;48.768;8.850;2022-08-30T03:25:40;8.38;;;5.18;;
24305;SDS011;12423;48.768;8.850;2022-08-30T03:27:41;9.50;;;5.55;;
24305;SDS011;12423;48.768;8.850;2022-08-30T03:29:42;19.60;;;5.75;;
24305;SDS011;12423;48.768;8.850;2022-08-30T03:31:43;7.57;;;5.10;;
24305;SDS011;12423;48.768;8.850;2022-08-30T03:33:44;8.13;;;5.28;;
24305;SDS011;12423;48.768;8.850;2022-08-30T03:35:45;9.23;;;5.00;;
24305;SDS011;12423;48.768;8.850;2022-08-30T03:37:46;6.80;;;4.57;;
24305;SDS011;12423;48.768;8.850;2022-08-30T03:39:48;7.90;;;5.60;;
24305;SDS011;12423;48.768;8.850;2022-08-30T03:41:49;7.53;;;5.32;;
24305;SDS011;12423;48.768;8.850;2022-08-30T03:43:51;7.50;;;4.95;;
24305;SDS011;12423;48.768;8.850;2022-08-30T03:45:52;8.65;;;5.20;;
24305;SDS011;12423;48.768;8.850;2022-08-30T03:47:53;6.47;;;5.20;;
24305;SDS011;12423;48.768;8.850;2022-08-30T03:49:55;9.60;;;5.22;;
24305;SDS011;12423;48.768;8.850;2022-08-30T03:51:56;12.35;;;5.15;;
24305;SDS011;12423;48.768;8.850;2022-08-30T03:53:58;8.48;;;4.97;;
24305;SDS011;12423;48.768;8.850;2022-08-30T03:55:59;7.28;;;5.25;;
24305;SDS011;12423;48.768;8.850;2022-08-30T03:58:00;10.00;;;5.18;;
24305;SDS011;12423;48.768;8.850;2022-08-30T04:00:02;8.48;;;5.32;;
24305;SDS011;12423;48.768;8.850;2022-08-30T04:02:12;6.40;;;4.78;;
24305;SDS011;12423;48.768;8.850;2022-08-30T04:04:13;7.20;;;5.88;;
24305;SDS011;12423;48.768;8.850;2022-08-30T04:06:14;7.15;;;5.45;;
24305;SDS011;12423;48.768;8.850;2022-08-30T04:08:16;8.85;;;5.55;;
24305;SDS011;12423;48.768;8.850;2022-08-30T04:10:18;7.40;;;5.60;;
24305;SDS011;12423;48.768;8.850;2022-08-30T04:12:20;7.30;;;5.18;;
24305;SDS011;12423;48.768;8.850;2022-08-30T04:14:21;9.63;;;5.32;;
24305;SDS011;12423;48.768;8.850;2022-08-30T04:16:23;8.38;;;5.70;;
24305;SDS011;12423;48.768;8.850;2022-08-30T04:18:24;10.30;;;4.85;;
24305;SDS011;12423;48.768;8.850;2022-08-30T04:20:25;7.15;;;5.20;;
24305;SDS011;12423;48.768;8.850;2022-08-30T04:22:26;9.18;;;5.63;;
24305;SDS011;12423;48.768;8.850;2022-08-30T04:24:27;7.38;;;5.25;;
24305;SDS011;12423;48.768;8.850;2022-08-30T04:26:28;10.32;;;5.82;;
24305;SDS011;12423;48.768;8.850;2022-08-30T04:28:29;9.13;;;5.93;;
24305;SDS011;12423;48.768;8.850;2022-08-30T04:30:30;7.07;;;5.50;;
24305;SDS011;12423;48.768;8.850;2022-08-30T04:32:33;7.68;;;5.68;;
24305;SDS011;12423;48.768;8.850;2022-08-30T04:34:35;7.05;;;5.20;;
24305;SDS011;12423;48.768;8.850;2022-08-30T04:36:36;7.68;;;5.55;;
24305;SDS011;12423;48.768;8.850;2022-08-30T04:38:37;8.18;;;5.38;;
24305;SDS011;12423;48.768;8.850;2022-08-30T04:40:42;8.45;;;5.97;;
24305;SDS011;12423;48.768;8.850;2022-08-30T04:42:45;8.63;;;5.88;;
24305;SDS011;12423;48.768;8.850;2022-08-30T04:44:47;9.00;;;6.10;;
24305;SDS011;12423;48.768;8.850;2022-08-30T04:46:48;7.85;;;5.50;;
24305;SDS011;12423;48.768;8.850;2022-08-30T04:48:49;7.70;;;5.43;;
24305;SDS011;12423;48.768;8.850;2022-08-30T04:50:50;8.23;;;5.97;;
24305;SDS011;12423;48.768;8.850;2022-08-30T04:52:51;7.35;;;5.88;;
24305;SDS011;12423;48.768;8.850;2022-08-30T04:54:53;8.13;;;5.85;;
24305;SDS011;12423;48.768;8.850;2022-08-30T04:56:55;8.50;;;5.65;;
24305;SDS011;12423;48.768;8.850;2022-08-30T04:58:56;8.13;;;5.85;;
24305;SDS011;12423;48.768;8.850;2022-08-30T05:00:57;8.35;;;5.75;;
24305;SDS011;12423;48.768;8.850;2022-08-30T05:02:58;10.77;;;5.50;;
24305;SDS011;12423;48.768;8.850;2022-08-30T05:05:00;9.10;;;5.43;;
24305;SDS011;12423;48.768;8.850;2022-08-30T05:07:19;7.70;;;5.05;;
24305;SDS011;12423;48.768;8.850;2022-08-30T05:09:20;7.38;;;5.55;;
24305;SDS011;12423;48.768;8.850;2022-08-30T05:11:22;12.10;;;5.85;;
24305;SDS011;12423;48.768;8.850;2022-08-30T05:13:23;8.48;;;5.95;;
24305;SDS011;12423;48.768;8.850;2022-08-30T05:15:24;9.18;;;6.35;;
24305;SDS011;12423;48.768;8.850;2022-08-30T05:17:25;6.75;;;5.40;;
24305;SDS011;12423;48.768;8.850;2022-08-30T05:19:26;9.38;;;5.50;;
24305;SDS011;12423;48.768;8.850;2022-08-30T05:21:27;10.43;;;5.75;;
24305;SDS011;12423;48.768;8.850;2022-08-30T05:23:28;8.10;;;5.47;;
24305;SDS011;12423;48.768;8.850;2022-08-30T05:25:30;8.68;;;5.65;;
24305;SDS011;12423;48.768;8.850;2022-08-30T05:27:33;8.50;;;5.68;;
24305;SDS011;12423;48.768;8.850;2022-08-30T05:29:35;9.27;;;6.07;;
24305;SDS011;12423;48.768;8.850;2022-08-30T05:31:36;10.18;;;6.20;;
24305;SDS011;12423;48.768;8.850;2022-08-30T05:33:37;7.13;;;5.80;;
24305;SDS011;12423;48.768;8.850;2022-08-30T05:35:38;8.98;;;6.15;;
24305;SDS011;12423;48.768;8.850;2022-08-30T05:37:40;8.68;;;6.22;;
24305;SDS011;12423;48.768;8.850;2022-08-30T05:39:41;8.52;;;5.72;;
24305;SDS011;12423;48.768;8.850;2022-08-30T05:41:42;9.93;;;5.43;;
24305;SDS011;12423;48.768;8.850;2022-08-30T05:43:43;10.02;;;6.20;;
24305;SDS011;12423;48.768;8.850;2022-08-30T05:45:44;13.88;;;6.13;;
24305;SDS011;12423;48.768;8.850;2022-08-30T05:47:45;7.90;;;5.13;;
24305;SDS011;12423;48.768;8.850;2022-08-30T05:49:47;9.73;;;6.95;;
24305;SDS011;12423;48.768;8.850;2022-08-30T05:51:48;12.50;;;6.25;;
24305;SDS011;12423;48.768;8.850;2022-08-30T05:53:50;10.27;;;6.25;;
24305;SDS011;12423;48.768;8.850;2022-08-30T05:55:52;11.00;;;5.90;;
24305;SDS011;12423;48.768;8.850;2022-08-30T05:57:53;10.00;;;6.47;;
24305;SDS011;12423;48.768;8.850;2022-08-30T05:59:54;8.32;;;5.90;;
24305;SDS011;12423;48.768;8.850;2022-08-30T06:01:56;7.88;;;5.05;;
24305;SDS011;12423;48.768;8.850;2022-08-30T06:03:58;9.80;;;5.90;;
24305;SDS011;12423;48.768;8.850;2022-08-30T06:06:00;8.43;;;5.72;;
24305;SDS011;12423;48.768;8.850;2022-08-30T06:08:03;9.85;;;5.18;;
24305;SDS011;12423;48.768;8.850;2022-08-30T06:10:04;8.80;;;5.57;;
24305;SDS011;12423;48.768;8.850;2022-08-30T06:12:06;14.27;;;6.70;;
24305;SDS011;12423;48.768;8.850;2022-08-30T06:14:07;15.73;;;7.47;;
24305;SDS011;12423;48.768;8.850;2022-08-30T06:16:13;11.63;;;6.85;;
24305;SDS011;12423;48.768;8.850;2022-08-30T06:18:15;9.65;;;6.38;;
24305;SDS011;12423;48.768;8.850;2022-08-30T06:20:16;9.93;;;6.53;;
24305;SDS011;12423;48.768;8.850;2022-08-30T06:22:19;10.13;;;6.72;;
24305;SDS011;12423;48.768;8.850;2022-08-30T06:24:20;9.98;;;5.93;;
24305;SDS011;12423;48.768;8.850;2022-08-30T06:26:21;10.63;;;6.18;;
24305;SDS011;12423;48.768;8.850;2022-08-30T06:28:23;10.02;;;6.32;;
24305;SDS011;12423;48.768;8.850;2022-08-30T06:30:24;9.45;;;5.97;;
24305;SDS011;12423;48.768;8.850;2022-08-30T06:32:25;9.50;;;6.25;;
24305;SDS011;12423;48.768;8.850;2022-08-30T06:34:26;8.52;;;5.78;;
24305;SDS011;12423;48.768;8.850;2022-08-30T06:36:27;11.07;;;6.20;;
24305;SDS011;12423;48.768;8.850;2022-08-30T06:38:28;9.85;;;6.15;;
24305;SDS011;12423;48.768;8.850;2022-08-30T06:40:29;11.07;;;5.57;;
24305;SDS011;12423;48.768;8.850;2022-08-30T06:42:31;11.13;;;5.70;;
24305;SDS011;12423;48.768;8.850;2022-08-30T06:44:33;8.30;;;6.38;;
24305;SDS011;12423;48.768;8.850;2022-08-30T06:46:34;12.48;;;6.53;;
24305;SDS011;12423;48.768;8.850;2022-08-30T06:48:36;9.27;;;6.45;;
24305;SDS011;12423;48.768;8.850;2022-08-30T06:50:38;9.45;;;6.47;;
24305;SDS011;12423;48.768;8.850;2022-08-30T06:52:41;11.32;;;6.57;;
24305;SDS011;12423;48.768;8.850;2022-08-30T06:54:44;9.50;;;6.57;;
24305;SDS011;12423;48.768;8.850;2022-08-30T06:56:45;8.48;;;5.50;;
24305;SDS011;12423;48.768;8.850;2022-08-30T06:58:46;11.23;;;5.95;;
24305;SDS011;12423;48.768;8.850;2022-08-30T07:00:47;10.60;;;6.35;;
24305;SDS011;12423;48.768;8.850;2022-08-30T07:02:48;9.10;;;6.20;;
24305;SDS011;12423;48.768;8.850;2022-08-30T07:04:49;9.13;;;6.57;;
24305;SDS011;12423;48.768;8.850;2022-08-30T07:06:50;8.35;;;6.38;;
24305;SDS011;12423;48.768;8.850;2022-08-30T07:08:51;9.85;;;5.97;;
24305;SDS011;12423;48.768;8.850;2022-08-30T07:10:53;10.77;;;5.80;;
24305;SDS011;12423;48.768;8.850;2022-08-30T07:12:54;11.07;;;6.05;;
24305;SDS011;12423;48.768;8.850;2022-08-30T07:14:55;9.73;;;7.10;;
24305;SDS011;12423;48.768;8.850;2022-08-30T07:16:56;11.07;;;6.15;;
24305;SDS011;12423;48.768;8.850;2022-08-30T07:18:57;12.95;;;6.00;;
24305;SDS011;12423;48.768;8.850;2022-08-30T07:21:34;9.57;;;5.80;;
24305;SDS011;12423;48.768;8.850;2022-08-30T07:23:33;7.97;;;5.38;;
24305;SDS011;12423;48.768;8.850;2022-08-30T07:25:37;9.38;;;5.60;;
24305;SDS011;12423;48.768;8.850;2022-08-30T07:27:40;12.27;;;6.05;;
24305;SDS011;12423;48.768;8.850;2022-08-30T07:29:41;12.90;;;5.90;;
24305;SDS011;12423;48.768;8.850;2022-08-30T07:31:42;10.60;;;5.78;;
24305;SDS011;12423;48.768;8.850;2022-08-30T07:33:44;13.38;;;5.15;;
24305;SDS011;12423;48.768;8.850;2022-08-30T07:35:45;9.65;;;6.30;;
24305;SDS011;12423;48.768;8.850;2022-08-30T07:37:46;8.98;;;6.15;;
24305;SDS011;12423;48.768;8.850;2022-08-30T07:39:47;8.90;;;5.35;;
24305;SDS011;12423;48.768;8.850;2022-08-30T07:41:48;9.60;;;5.30;;
24305;SDS011;12423;48.768;8.850;2022-08-30T07:43:50;8.43;;;5.80;;
24305;SDS011;12423;48.768;8.850;2022-08-30T07:45:51;8.50;;;6.10;;
24305;SDS011;12423;48.768;8.850;2022-08-30T07:47:52;16.70;;;5.75;;
24305;SDS011;12423;48.768;8.850;2022-08-30T07:49:53;9.15;;;5.72;;
24305;SDS011;12423;48.768;8.850;2022-08-30T07:51:55;8.52;;;5.70;;
24305;SDS011;12423;48.768;8.850;2022-08-30T07:53:57;12.65;;;5.50;;
24305;SDS011;12423;48.768;8.850;2022-08-30T07:55:58;8.68;;;5.85;;
24305;SDS011;12423;48.768;8.850;2022-08-30T07:57:59;12.32;;;5.95;;
24305;SDS011;12423;48.768;8.850;2022-08-30T08:00:00;10.70;;;5.07;;
24305;SDS011;12423;48.768;8.850;2022-08-30T08:02:01;10.70;;;5.40;;
24305;SDS011;12423;48.768;8.850;2022-08-30T08:04:02;11.98;;;6.20;;
24305;SDS011;12423;48.768;8.850;2022-08-30T08:06:03;11.20;;;5.60;;
24305;SDS011;12423;48.768;8.850;2022-08-30T08:08:06;10.27;;;5.57;;
24305;SDS011;12423;48.768;8.850;2022-08-30T08:10:07;9.07;;;5.40;;
24305;SDS011;12423;48.768;8.850;2022-08-30T08:12:09;8.75;;;5.85;;
24305;SDS011;12423;48.768;8.850;2022-08-30T08:14:10;13.27;;;5.28;;
24305;SDS011;12423;48.768;8.850;2022-08-30T08:16:11;8.40;;;5.30;;
24305;SDS011;12423;48.768;8.850;2022-08-30T08:18:12;9.35;;;5.10;;
24305;SDS011;12423;48.768;8.850;2022-08-30T08:20:13;11.25;;;5.60;;
24305;SDS011;12423;48.768;8.850;2022-08-30T08:22:14;7.90;;;5.47;;
24305;SDS011;12423;48.768;8.850;2022-08-30T08:24:15;9.25;;;5.32;;
24305;SDS011;12423;48.768;8.850;2022-08-30T08:26:16;9.18;;;6.22;;
24305;SDS011;12423;48.768;8.850;2022-08-30T08:28:18;13.13;;;5.55;;
24305;SDS011;12423;48.768;8.850;2022-08-30T08:30:20;10.38;;;4.70;;
24305;SDS011;12423;48.768;8.850;2022-08-30T08:32:21;8.60;;;5.07;;
24305;SDS011;12423;48.768;8.850;2022-08-30T08:34:22;9.20;;;5.40;;
24305;SDS011;12423;48.768;8.850;2022-08-30T08:36:23;6.55;;;5.07;;
24305;SDS011;12423;48.768;8.850;2022-08-30T08:38:24;14.65;;;5.15;;
24305;SDS011;12423;48.768;8.850;2022-08-30T08:40:25;14.55;;;5.07;;
24305;SDS011;12423;48.768;8.850;2022-08-30T08:49:39;13.15;;;5.47;;
24305;SDS011;12423;48.768;8.850;2022-08-30T08:51:43;9.10;;;5.03;;
24305;SDS011;12423;48.768;8.850;2022-08-30T08:56:16;13.63;;;5.32;;
24305;SDS011;12423;48.768;8.850;2022-08-30T08:58:23;10.27;;;4.70;;
24305;SDS011;12423;48.768;8.850;2022-08-30T09:00:26;8.75;;;4.35;;
24305;SDS011;12423;48.768;8.850;2022-08-30T09:02:33;7.90;;;4.75;;
24305;SDS011;12423;48.768;8.850;2022-08-30T09:04:40;8.52;;;4.35;;
24305;SDS011;12423;48.768;8.850;2022-08-30T09:08:57;6.60;;;4.32;;
24305;SDS011;12423;48.768;8.850;2022-08-30T09:11:02;8.18;;;4.13;;
24305;SDS011;12423;48.768;8.850;2022-08-30T09:13:06;13.13;;;5.22;;
24305;SDS011;12423;48.768;8.850;2022-08-30T09:17:14;7.68;;;4.75;;
24305;SDS011;12423;48.768;8.850;2022-08-30T09:19:26;7.65;;;4.47;;
24305;SDS011;12423;48.768;8.850;2022-08-30T09:21:28;7.03;;;4.20;;
24305;SDS011;12423;48.768;8.850;2022-08-30T09:23:28;7.00;;;4.22;;
24305;SDS011;12423;48.768;8.850;2022-08-30T09:25:31;6.95;;;4.10;;
24305;SDS011;12423;48.768;8.850;2022-08-30T09:27:42;6.82;;;4.45;;
24305;SDS011;12423;48.768;8.850;2022-08-30T09:29:52;7.28;;;3.88;;
24305;SDS011;12423;48.768;8.850;2022-08-30T09:31:58;6.28;;;4.47;;
24305;SDS011;12423;48.768;8.850;2022-08-30T09:36:21;6.53;;;4.10;;
24305;SDS011;12423;48.768;8.850;2022-08-30T09:38:31;7.28;;;4.20;;
24305;SDS011;12423;48.768;8.850;2022-08-30T09:40:36;8.68;;;4.47;;
24305;SDS011;12423;48.768;8.850;2022-08-30T09:42:39;7.32;;;4.47;;
24305;SDS011;12423;48.768;8.850;2022-08-30T09:44:40;9.20;;;4.95;;
24305;SDS011;12423;48.768;8.850;2022-08-30T09:46:45;7.10;;;4.55;;
24305;SDS011;12423;48.768;8.850;2022-08-30T09:48:49;10.77;;;4.57;;
24305;SDS011;12423;48.768;8.850;2022-08-30T09:50:52;8.15;;;4.75;;
24305;SDS011;12423;48.768;8.850;2022-08-30T09:53:12;5.75;;;3.70;;
24305;SDS011;12423;48.768;8.850;2022-08-30T09:55:39;6.50;;;4.22;;
24305;SDS011;12423;48.768;8.850;2022-08-30T10:00:06;6.57;;;4.10;;
24305;SDS011;12423;48.768;8.850;2022-08-30T10:04:28;5.50;;;4.07;;
24305;SDS011;12423;48.768;8.850;2022-08-30T10:15:24;7.03;;;3.90;;
24305;SDS011;12423;48.768;8.850;2022-08-30T10:20:12;8.88;;;4.18;;
24305;SDS011;12423;48.768;8.850;2022-08-30T10:24:35;7.05;;;3.97;;
24305;SDS011;12423;48.768;8.850;2022-08-30T10:26:54;6.78;;;4.40;;
24305;SDS011;12423;48.768;8.850;2022-08-30T10:29:13;9.95;;;4.10;;
24305;SDS011;12423;48.768;8.850;2022-08-30T10:33:24;5.43;;;4.10;;
24305;SDS011;12423;48.768;8.850;2022-08-30T10:35:29;5.88;;;3.80;;
24305;SDS011;12423;48.768;8.850;2022-08-30T10:37:38;6.10;;;3.73;;
24305;SDS011;12423;48.768;8.850;2022-08-30T10:39:46;4.53;;;3.97;;
24305;SDS011;12423;48.768;8.850;2022-08-30T10:41:57;6.35;;;3.65;;
24305;SDS011;12423;48.768;8.850;2022-08-30T10:44:14;10.77;;;3.80;;
24305;SDS011;12423;48.768;8.850;2022-08-30T10:48:36;5.38;;;3.38;;
24305;SDS011;12423;48.768;8.850;2022-08-30T10:50:41;6.70;;;3.20;;
24305;SDS011;12423;48.768;8.850;2022-08-30T10:53:09;4.45;;;3.17;;
24305;SDS011;12423;48.768;8.850;2022-08-30T10:57:23;6.28;;;3.40;;
24305;SDS011;12423;48.768;8.850;2022-08-30T10:59:25;5.13;;;3.22;;
24305;SDS011;12423;48.768;8.850;2022-08-30T11:03:44;4.85;;;3.60;;
24305;SDS011;12423;48.768;8.850;2022-08-30T11:06:11;6.13;;;3.58;;
24305;SDS011;12423;48.768;8.850;2022-08-30T11:08:31;7.13;;;3.33;;
24305;SDS011;12423;48.768;8.850;2022-08-30T11:11:00;4.47;;;3.35;;
24305;SDS011;12423;48.768;8.850;2022-08-30T11:13:10;4.38;;;3.38;;
24305;SDS011;12423;48.768;8.850;2022-08-30T11:15:22;5.53;;;3.50;;
24305;SDS011;12423;48.768;8.850;2022-08-30T11:17:27;7.32;;;3.47;;
24305;SDS011;12423;48.768;8.850;2022-08-30T11:19:36;5.45;;;3.50;;
24305;SDS011;12423;48.768;8.850;2022-08-30T11:21:40;5.78;;;3.22;;
24305;SDS011;12423;48.768;8.850;2022-08-30T11:23:56;4.38;;;3.50;;
24305;SDS011;12423;48.768;8.850;2022-08-30T11:26:00;5.50;;;4.32;;
24305;SDS011;12423;48.768;8.850;2022-08-30T11:28:09;5.65;;;3.60;;
24305;SDS011;12423;48.768;8.850;2022-08-30T11:32:25;7.07;;;3.35;;
24305;SDS011;12423;48.768;8.850;2022-08-30T11:35:05;6.20;;;3.33;;
24305;SDS011;12423;48.768;8.850;2022-08-30T11:37:06;5.97;;;3.45;;
24305;SDS011;12423;48.768;8.850;2022-08-30T11:39:09;6.68;;;3.17;;
24305;SDS011;12423;48.768;8.850;2022-08-30T11:41:27;11.00;;;3.20;;
24305;SDS011;12423;48.768;8.850;2022-08-30T11:45:44;7.30;;;3.05;;
24305;SDS011;12423;48.768;8.850;2022-08-30T11:48:04;4.68;;;3.35;;
24305;SDS011;12423;48.768;8.850;2022-08-30T11:50:11;4.95;;;3.05;;
24305;SDS011;12423;48.768;8.850;2022-08-30T11:59:28;6.18;;;3.30;;
24305;SDS011;12423;48.768;8.850;2022-08-30T12:01:35;3.67;;;3.15;;
24305;SDS011;12423;48.768;8.850;2022-08-30T12:03:38;11.35;;;4.15;;
24305;SDS011;12423;48.768;8.850;2022-08-30T12:07:58;10.32;;;3.70;;
24305;SDS011;12423;48.768;8.850;2022-08-30T12:10:03;4.47;;;3.17;;
24305;SDS011;12423;48.768;8.850;2022-08-30T12:12:07;4.28;;;3.45;;
24305;SDS011;12423;48.768;8.850;2022-08-30T12:14:10;3.80;;;3.15;;
24305;SDS011;12423;48.768;8.850;2022-08-30T12:16:45;5.25;;;3.47;;
24305;SDS011;12423;48.768;8.850;2022-08-30T12:19:16;4.88;;;3.67;;
24305;SDS011;12423;48.768;8.850;2022-08-30T12:23:31;7.25;;;3.70;;
24305;SDS011;12423;48.768;8.850;2022-08-30T12:25:37;7.63;;;3.72;;
24305;SDS011;12423;48.768;8.850;2022-08-30T12:27:38;15.32;;;3.80;;
24305;SDS011;12423;48.768;8.850;2022-08-30T12:29:48;5.38;;;3.20;;
24305;SDS011;12423;48.768;8.850;2022-08-30T12:31:59;3.92;;;3.00;;
24305;SDS011;12423;48.768;8.850;2022-08-30T12:34:02;7.60;;;4.00;;
24305;SDS011;12423;48.768;8.850;2022-08-30T12:36:03;5.43;;;3.42;;
24305;SDS011;12423;48.768;8.850;2022-08-30T12:38:05;9.57;;;3.58;;
24305;SDS011;12423;48.768;8.850;2022-08-30T12:40:16;4.90;;;3.20;;
24305;SDS011;12423;48.768;8.850;2022-08-30T12:42:25;4.75;;;3.40;;
24305;SDS011;12423;48.768;8.850;2022-08-30T12:44:27;5.80;;;3.97;;
24305;SDS011;12423;48.768;8.850;2022-08-30T12:46:29;4.63;;;3.35;;
24305;SDS011;12423;48.768;8.850;2022-08-30T12:48:34;4.75;;;3.55;;
24305;SDS011;12423;48.768;8.850;2022-08-30T12:50:44;5.05;;;3.55;;
24305;SDS011;12423;48.768;8.850;2022-08-30T12:52:58;4.88;;;3.60;;
24305;SDS011;12423;48.768;8.850;2022-08-30T12:55:17;9.10;;;3.72;;
24305;SDS011;12423;48.768;8.850;2022-08-30T12:57:34;6.45;;;3.22;;
24305;SDS011;12423;48.768;8.850;2022-08-30T13:01:52;6.28;;;3.47;;
24305;SDS011;12423;48.768;8.850;2022-08-30T13:06:04;5.85;;;3.30;;
24305;SDS011;12423;48.768;8.850;2022-08-30T13:10:30;6.25;;;2.97;;
24305;SDS011;12423;48.768;8.850;2022-08-30T13:12:31;4.80;;;3.10;;
24305;SDS011;12423;48.768;8.850;2022-08-30T13:14:37;6.10;;;3.35;;
24305;SDS011;12423;48.768;8.850;2022-08-30T13:16:38;6.70;;;3.25;;
24305;SDS011;12423;48.768;8.850;2022-08-30T13:18:39;7.72;;;3.15;;
24305;SDS011;12423;48.768;8.850;2022-08-30T13:20:40;4.95;;;3.35;;
24305;SDS011;12423;48.768;8.850;2022-08-30T13:22:52;7.35;;;3.25;;
24305;SDS011;12423;48.768;8.850;2022-08-30T13:25:04;4.35;;;3.67;;
24305;SDS011;12423;48.768;8.850;2022-08-30T13:27:07;10.38;;;3.88;;
24305;SDS011;12423;48.768;8.850;2022-08-30T13:29:15;6.70;;;3.50;;
24305;SDS011;12423;48.768;8.850;2022-08-30T13:31:18;6.85;;;3.70;;